sensor_id;sensor_type;location;lat;lon;timestamp;P1;durP1;ratioP1;P2;durP2;ratioP2
72087;SDS011;59961;50.232;8.616;2023-12-20T00:00:49;6.07;;;2.63;;
72087;SDS011;59961;50.232;8.616;2023-12-20T00:03:15;8.00;;;3.65;;
72087;SDS011;59961;50.232;8.616;2023-12-20T00:05:40;7.93;;;3.33;;
72087;SDS011;59961;50.232;8.616;2023-12-20T00:08:06;8.33;;;4.00;;
72087;SDS011;59961;50.232;8.616;2023-12-20T00:10:31;6.60;;;3.20;;
72087;SDS011;59961;50.232;8.616;2023-12-20T00:12:56;8.60;;;3.28;;
72087;SDS011;59961;50.232;8.616;2023-12-20T00:15:21;7.23;;;2.80;;
72087;SDS011;59961;50.232;8.616;2023-12-20T00:17:46;6.90;;;3.17;;
72087;SDS011;59961;50.232;8.616;2023-12-20T00:20:12;7.00;;;3.47;;
72087;SDS011;59961;50.232;8.616;2023-12-20T00:22:37;9.23;;;4.00;;
72087;SDS011;59961;50.232;8.616;2023-12-20T00:25:02;8.67;;;3.60;;
72087;SDS011;59961;50.232;8.616;2023-12-20T00:27:27;8.30;;;4.00;;
72087;SDS011;59961;50.232;8.616;2023-12-20T00:29:52;9.15;;;3.63;;
72087;SDS011;59961;50.232;8.616;2023-12-20T00:32:17;10.97;;;4.20;;
72087;SDS011;59961;50.232;8.616;2023-12-20T00:34:43;8.53;;;4.07;;
72087;SDS011;59961;50.232;8.616;2023-12-20T00:37:08;10.20;;;3.90;;
72087;SDS011;59961;50.232;8.616;2023-12-20T00:39:33;9.13;;;4.07;;
72087;SDS011;59961;50.232;8.616;2023-12-20T00:41:58;8.27;;;3.80;;
72087;SDS011;59961;50.232;8.616;2023-12-20T00:44:23;9.25;;;4.30;;
72087;SDS011;59961;50.232;8.616;2023-12-20T00:46:48;9.43;;;4.40;;
72087;SDS011;59961;50.232;8.616;2023-12-20T00:49:14;8.50;;;4.13;;
72087;SDS011;59961;50.232;8.616;2023-12-20T00:51:39;9.30;;;4.55;;
72087;SDS011;59961;50.232;8.616;2023-12-20T00:54:04;9.20;;;4.55;;
72087;SDS011;59961;50.232;8.616;2023-12-20T00:56:31;11.57;;;4.20;;
72087;SDS011;59961;50.232;8.616;2023-12-20T00:58:56;10.70;;;4.37;;
72087;SDS011;59961;50.232;8.616;2023-12-20T01:01:21;8.87;;;3.93;;
72087;SDS011;59961;50.232;8.616;2023-12-20T01:03:46;8.17;;;3.97;;
72087;SDS011;59961;50.232;8.616;2023-12-20T01:06:11;8.13;;;4.07;;
72087;SDS011;59961;50.232;8.616;2023-12-20T01:08:37;8.43;;;4.05;;
72087;SDS011;59961;50.232;8.616;2023-12-20T01:11:05;9.70;;;4.37;;
72087;SDS011;59961;50.232;8.616;2023-12-20T01:13:30;9.70;;;4.35;;
72087;SDS011;59961;50.232;8.616;2023-12-20T01:15:56;7.57;;;3.67;;
72087;SDS011;59961;50.232;8.616;2023-12-20T01:18:21;8.38;;;4.07;;
72087;SDS011;59961;50.232;8.616;2023-12-20T01:20:46;9.03;;;3.77;;
72087;SDS011;59961;50.232;8.616;2023-12-20T01:23:11;8.25;;;3.92;;
72087;SDS011;59961;50.232;8.616;2023-12-20T01:25:36;9.13;;;4.15;;
72087;SDS011;59961;50.232;8.616;2023-12-20T01:28:02;8.83;;;3.97;;
72087;SDS011;59961;50.232;8.616;2023-12-20T01:30:28;8.33;;;3.67;;
72087;SDS011;59961;50.232;8.616;2023-12-20T01:32:53;10.50;;;4.23;;
72087;SDS011;59961;50.232;8.616;2023-12-20T01:35:19;7.78;;;3.92;;
72087;SDS011;59961;50.232;8.616;2023-12-20T01:37:44;8.05;;;3.88;;
72087;SDS011;59961;50.232;8.616;2023-12-20T01:40:10;9.30;;;4.30;;
72087;SDS011;59961;50.232;8.616;2023-12-20T01:42:35;8.43;;;4.20;;
72087;SDS011;59961;50.232;8.616;2023-12-20T01:45:00;10.35;;;4.30;;
72087;SDS011;59961;50.232;8.616;2023-12-20T01:47:25;8.40;;;4.10;;
72087;SDS011;59961;50.232;8.616;2023-12-20T01:49:52;9.40;;;4.20;;
72087;SDS011;59961;50.232;8.616;2023-12-20T01:52:17;7.70;;;4.13;;
72087;SDS011;59961;50.232;8.616;2023-12-20T01:54:42;8.37;;;4.57;;
72087;SDS011;59961;50.232;8.616;2023-12-20T01:57:07;6.70;;;3.60;;
72087;SDS011;59961;50.232;8.616;2023-12-20T01:59:33;8.40;;;4.20;;
72087;SDS011;59961;50.232;8.616;2023-12-20T02:01:58;9.45;;;4.30;;
72087;SDS011;59961;50.232;8.616;2023-12-20T02:04:23;7.60;;;3.90;;
72087;SDS011;59961;50.232;8.616;2023-12-20T02:06:49;8.87;;;4.00;;
72087;SDS011;59961;50.232;8.616;2023-12-20T02:09:17;9.82;;;4.13;;
72087;SDS011;59961;50.232;8.616;2023-12-20T02:11:42;7.83;;;3.90;;
72087;SDS011;59961;50.232;8.616;2023-12-20T02:14:08;8.90;;;3.78;;
72087;SDS011;59961;50.232;8.616;2023-12-20T02:16:33;7.25;;;3.65;;
72087;SDS011;59961;50.232;8.616;2023-12-20T02:18:58;7.57;;;3.40;;
72087;SDS011;59961;50.232;8.616;2023-12-20T02:21:41;6.90;;;3.67;;
72087;SDS011;59961;50.232;8.616;2023-12-20T02:24:06;7.78;;;3.63;;
72087;SDS011;59961;50.232;8.616;2023-12-20T02:26:32;7.57;;;3.77;;
72087;SDS011;59961;50.232;8.616;2023-12-20T02:28:58;7.63;;;3.53;;
72087;SDS011;59961;50.232;8.616;2023-12-20T02:31:23;8.43;;;3.97;;
72087;SDS011;59961;50.232;8.616;2023-12-20T02:33:48;7.13;;;3.50;;
72087;SDS011;59961;50.232;8.616;2023-12-20T02:36:14;7.93;;;3.47;;
72087;SDS011;59961;50.232;8.616;2023-12-20T02:38:39;8.13;;;3.57;;
72087;SDS011;59961;50.232;8.616;2023-12-20T02:41:04;7.10;;;3.70;;
72087;SDS011;59961;50.232;8.616;2023-12-20T02:43:29;6.90;;;3.50;;
72087;SDS011;59961;50.232;8.616;2023-12-20T02:45:54;8.03;;;3.67;;
72087;SDS011;59961;50.232;8.616;2023-12-20T02:48:19;8.10;;;3.97;;
72087;SDS011;59961;50.232;8.616;2023-12-20T02:50:45;8.13;;;4.38;;
72087;SDS011;59961;50.232;8.616;2023-12-20T02:53:11;7.32;;;3.85;;
72087;SDS011;59961;50.232;8.616;2023-12-20T02:55:36;8.30;;;3.60;;
72087;SDS011;59961;50.232;8.616;2023-12-20T02:58:01;7.77;;;3.70;;
72087;SDS011;59961;50.232;8.616;2023-12-20T03:00:27;7.33;;;3.83;;
72087;SDS011;59961;50.232;8.616;2023-12-20T03:02:52;7.37;;;3.30;;
72087;SDS011;59961;50.232;8.616;2023-12-20T03:05:17;8.15;;;3.92;;
72087;SDS011;59961;50.232;8.616;2023-12-20T03:07:42;8.02;;;4.22;;
72087;SDS011;59961;50.232;8.616;2023-12-20T03:10:08;9.53;;;4.27;;
72087;SDS011;59961;50.232;8.616;2023-12-20T03:12:34;7.68;;;3.88;;
72087;SDS011;59961;50.232;8.616;2023-12-20T03:14:59;8.33;;;3.47;;
72087;SDS011;59961;50.232;8.616;2023-12-20T03:17:24;6.47;;;2.80;;
72087;SDS011;59961;50.232;8.616;2023-12-20T03:19:49;6.50;;;2.55;;
72087;SDS011;59961;50.232;8.616;2023-12-20T03:22:15;3.15;;;1.60;;
72087;SDS011;59961;50.232;8.616;2023-12-20T03:24:40;4.63;;;1.83;;
72087;SDS011;59961;50.232;8.616;2023-12-20T03:27:05;5.68;;;2.63;;
72087;SDS011;59961;50.232;8.616;2023-12-20T03:29:32;5.05;;;2.63;;
72087;SDS011;59961;50.232;8.616;2023-12-20T03:31:57;5.45;;;2.25;;
72087;SDS011;59961;50.232;8.616;2023-12-20T03:34:22;5.80;;;2.70;;
72087;SDS011;59961;50.232;8.616;2023-12-20T03:36:47;4.20;;;1.90;;
72087;SDS011;59961;50.232;8.616;2023-12-20T03:39:12;5.13;;;2.80;;
72087;SDS011;59961;50.232;8.616;2023-12-20T03:41:37;5.25;;;2.50;;
72087;SDS011;59961;50.232;8.616;2023-12-20T03:44:03;5.80;;;2.17;;
72087;SDS011;59961;50.232;8.616;2023-12-20T03:46:28;4.00;;;1.87;;
72087;SDS011;59961;50.232;8.616;2023-12-20T03:48:53;4.10;;;1.60;;
72087;SDS011;59961;50.232;8.616;2023-12-20T03:51:18;5.07;;;2.10;;
72087;SDS011;59961;50.232;8.616;2023-12-20T03:53:43;4.88;;;1.80;;
72087;SDS011;59961;50.232;8.616;2023-12-20T03:56:08;3.63;;;1.65;;
72087;SDS011;59961;50.232;8.616;2023-12-20T03:58:33;4.55;;;2.05;;
72087;SDS011;59961;50.232;8.616;2023-12-20T04:00:59;4.63;;;2.13;;
72087;SDS011;59961;50.232;8.616;2023-12-20T04:03:24;5.23;;;2.00;;
72087;SDS011;59961;50.232;8.616;2023-12-20T04:05:49;4.33;;;1.83;;
72087;SDS011;59961;50.232;8.616;2023-12-20T04:08:14;6.63;;;1.85;;
72087;SDS011;59961;50.232;8.616;2023-12-20T04:10:39;5.10;;;2.20;;
72087;SDS011;59961;50.232;8.616;2023-12-20T04:13:04;5.30;;;2.33;;
72087;SDS011;59961;50.232;8.616;2023-12-20T04:15:30;4.80;;;2.40;;
72087;SDS011;59961;50.232;8.616;2023-12-20T04:17:55;5.27;;;2.30;;
72087;SDS011;59961;50.232;8.616;2023-12-20T04:20:20;4.55;;;2.05;;
72087;SDS011;59961;50.232;8.616;2023-12-20T04:22:45;5.55;;;2.30;;
72087;SDS011;59961;50.232;8.616;2023-12-20T04:25:10;5.93;;;2.43;;
72087;SDS011;59961;50.232;8.616;2023-12-20T04:27:35;4.97;;;2.37;;
72087;SDS011;59961;50.232;8.616;2023-12-20T04:30:01;4.00;;;2.08;;
72087;SDS011;59961;50.232;8.616;2023-12-20T04:32:26;4.55;;;2.20;;
72087;SDS011;59961;50.232;8.616;2023-12-20T04:34:51;4.33;;;2.17;;
72087;SDS011;59961;50.232;8.616;2023-12-20T04:37:16;4.20;;;1.73;;
72087;SDS011;59961;50.232;8.616;2023-12-20T04:39:41;4.95;;;2.20;;
72087;SDS011;59961;50.232;8.616;2023-12-20T04:42:07;5.40;;;2.33;;
72087;SDS011;59961;50.232;8.616;2023-12-20T04:44:32;4.77;;;1.97;;
72087;SDS011;59961;50.232;8.616;2023-12-20T04:46:57;4.80;;;2.30;;
72087;SDS011;59961;50.232;8.616;2023-12-20T04:49:22;5.80;;;1.83;;
72087;SDS011;59961;50.232;8.616;2023-12-20T04:51:48;6.45;;;2.10;;
72087;SDS011;59961;50.232;8.616;2023-12-20T04:54:13;3.70;;;1.95;;
72087;SDS011;59961;50.232;8.616;2023-12-20T04:56:38;5.70;;;1.80;;
72087;SDS011;59961;50.232;8.616;2023-12-20T04:59:04;5.20;;;2.23;;
72087;SDS011;59961;50.232;8.616;2023-12-20T05:01:29;3.92;;;1.38;;
72087;SDS011;59961;50.232;8.616;2023-12-20T05:03:54;4.40;;;1.48;;
72087;SDS011;59961;50.232;8.616;2023-12-20T05:06:19;2.42;;;1.20;;
72087;SDS011;59961;50.232;8.616;2023-12-20T05:08:44;5.83;;;1.63;;
72087;SDS011;59961;50.232;8.616;2023-12-20T05:11:09;3.47;;;1.45;;
72087;SDS011;59961;50.232;8.616;2023-12-20T05:13:34;4.70;;;1.57;;
72087;SDS011;59961;50.232;8.616;2023-12-20T05:16:00;2.10;;;1.20;;
72087;SDS011;59961;50.232;8.616;2023-12-20T05:18:25;5.00;;;1.38;;
72087;SDS011;59961;50.232;8.616;2023-12-20T05:20:50;4.75;;;0.93;;
72087;SDS011;59961;50.232;8.616;2023-12-20T05:23:16;4.87;;;1.10;;
72087;SDS011;59961;50.232;8.616;2023-12-20T05:25:42;2.67;;;1.17;;
72087;SDS011;59961;50.232;8.616;2023-12-20T05:28:07;3.33;;;1.20;;
72087;SDS011;59961;50.232;8.616;2023-12-20T05:30:32;9.00;;;1.10;;
72087;SDS011;59961;50.232;8.616;2023-12-20T05:32:57;3.88;;;1.10;;
72087;SDS011;59961;50.232;8.616;2023-12-20T05:35:22;5.47;;;1.20;;
72087;SDS011;59961;50.232;8.616;2023-12-20T05:37:48;5.17;;;1.20;;
72087;SDS011;59961;50.232;8.616;2023-12-20T05:40:13;2.93;;;0.70;;
72087;SDS011;59961;50.232;8.616;2023-12-20T05:42:39;5.30;;;1.27;;
72087;SDS011;59961;50.232;8.616;2023-12-20T05:45:04;3.10;;;0.70;;
72087;SDS011;59961;50.232;8.616;2023-12-20T05:47:31;3.72;;;0.90;;
72087;SDS011;59961;50.232;8.616;2023-12-20T05:49:56;3.93;;;1.00;;
72087;SDS011;59961;50.232;8.616;2023-12-20T05:52:21;3.22;;;0.80;;
72087;SDS011;59961;50.232;8.616;2023-12-20T05:54:46;4.73;;;1.07;;
72087;SDS011;59961;50.232;8.616;2023-12-20T05:57:12;2.57;;;0.80;;
72087;SDS011;59961;50.232;8.616;2023-12-20T05:59:37;3.17;;;1.10;;
72087;SDS011;59961;50.232;8.616;2023-12-20T06:02:03;2.23;;;1.00;;
72087;SDS011;59961;50.232;8.616;2023-12-20T06:04:28;3.57;;;0.73;;
72087;SDS011;59961;50.232;8.616;2023-12-20T06:06:54;4.60;;;1.13;;
72087;SDS011;59961;50.232;8.616;2023-12-20T06:09:19;2.92;;;0.70;;
72087;SDS011;59961;50.232;8.616;2023-12-20T06:11:44;4.63;;;1.07;;
72087;SDS011;59961;50.232;8.616;2023-12-20T06:14:09;5.43;;;1.23;;
72087;SDS011;59961;50.232;8.616;2023-12-20T06:16:34;2.33;;;0.80;;
72087;SDS011;59961;50.232;8.616;2023-12-20T06:18:59;4.60;;;1.00;;
72087;SDS011;59961;50.232;8.616;2023-12-20T06:21:25;2.77;;;0.80;;
72087;SDS011;59961;50.232;8.616;2023-12-20T06:23:50;3.67;;;1.00;;
72087;SDS011;59961;50.232;8.616;2023-12-20T06:26:15;5.47;;;0.90;;
72087;SDS011;59961;50.232;8.616;2023-12-20T06:28:40;4.20;;;0.90;;
72087;SDS011;59961;50.232;8.616;2023-12-20T06:31:05;3.03;;;0.95;;
72087;SDS011;59961;50.232;8.616;2023-12-20T06:33:31;2.67;;;1.00;;
72087;SDS011;59961;50.232;8.616;2023-12-20T06:35:56;7.13;;;1.33;;
72087;SDS011;59961;50.232;8.616;2023-12-20T06:38:21;2.97;;;1.00;;
72087;SDS011;59961;50.232;8.616;2023-12-20T06:40:46;2.20;;;0.90;;
72087;SDS011;59961;50.232;8.616;2023-12-20T06:43:12;10.03;;;1.27;;
72087;SDS011;59961;50.232;8.616;2023-12-20T06:45:37;5.27;;;0.80;;
72087;SDS011;59961;50.232;8.616;2023-12-20T06:48:02;5.63;;;0.80;;
72087;SDS011;59961;50.232;8.616;2023-12-20T06:50:27;7.00;;;1.27;;
72087;SDS011;59961;50.232;8.616;2023-12-20T06:52:53;4.25;;;0.90;;
72087;SDS011;59961;50.232;8.616;2023-12-20T06:55:18;4.67;;;1.07;;
72087;SDS011;59961;50.232;8.616;2023-12-20T06:57:43;5.57;;;1.37;;
72087;SDS011;59961;50.232;8.616;2023-12-20T07:00:10;5.55;;;1.42;;
72087;SDS011;59961;50.232;8.616;2023-12-20T07:02:36;4.90;;;1.00;;
72087;SDS011;59961;50.232;8.616;2023-12-20T07:05:01;4.82;;;1.27;;
72087;SDS011;59961;50.232;8.616;2023-12-20T07:07:26;3.77;;;1.10;;
72087;SDS011;59961;50.232;8.616;2023-12-20T07:09:52;3.90;;;0.83;;
72087;SDS011;59961;50.232;8.616;2023-12-20T07:12:18;4.45;;;0.80;;
72087;SDS011;59961;50.232;8.616;2023-12-20T07:14:46;3.42;;;1.13;;
72087;SDS011;59961;50.232;8.616;2023-12-20T07:17:11;5.47;;;0.80;;
72087;SDS011;59961;50.232;8.616;2023-12-20T07:19:38;2.20;;;0.95;;
72087;SDS011;59961;50.232;8.616;2023-12-20T07:22:04;3.17;;;0.90;;
72087;SDS011;59961;50.232;8.616;2023-12-20T07:24:29;5.17;;;1.03;;
72087;SDS011;59961;50.232;8.616;2023-12-20T07:26:54;2.42;;;1.27;;
72087;SDS011;59961;50.232;8.616;2023-12-20T07:29:19;8.60;;;1.27;;
72087;SDS011;59961;50.232;8.616;2023-12-20T07:31:44;2.40;;;0.80;;
72087;SDS011;59961;50.232;8.616;2023-12-20T07:34:10;6.50;;;1.23;;
72087;SDS011;59961;50.232;8.616;2023-12-20T07:36:35;5.93;;;1.20;;
72087;SDS011;59961;50.232;8.616;2023-12-20T07:39:00;7.80;;;0.95;;
72087;SDS011;59961;50.232;8.616;2023-12-20T07:41:25;3.37;;;1.10;;
72087;SDS011;59961;50.232;8.616;2023-12-20T07:43:50;5.10;;;1.40;;
72087;SDS011;59961;50.232;8.616;2023-12-20T07:46:16;6.03;;;1.30;;
72087;SDS011;59961;50.232;8.616;2023-12-20T07:48:41;5.60;;;1.20;;
72087;SDS011;59961;50.232;8.616;2023-12-20T07:51:07;5.25;;;1.13;;
72087;SDS011;59961;50.232;8.616;2023-12-20T07:53:34;5.68;;;1.25;;
72087;SDS011;59961;50.232;8.616;2023-12-20T07:56:00;7.93;;;1.47;;
72087;SDS011;59961;50.232;8.616;2023-12-20T07:58:25;4.33;;;1.03;;
72087;SDS011;59961;50.232;8.616;2023-12-20T08:00:50;5.50;;;1.20;;
72087;SDS011;59961;50.232;8.616;2023-12-20T08:03:15;4.50;;;1.30;;
72087;SDS011;59961;50.232;8.616;2023-12-20T08:05:41;3.73;;;1.30;;
72087;SDS011;59961;50.232;8.616;2023-12-20T08:08:06;3.55;;;1.42;;
72087;SDS011;59961;50.232;8.616;2023-12-20T08:10:31;5.83;;;1.33;;
72087;SDS011;59961;50.232;8.616;2023-12-20T08:12:56;6.10;;;1.90;;
72087;SDS011;59961;50.232;8.616;2023-12-20T08:15:21;5.60;;;1.63;;
72087;SDS011;59961;50.232;8.616;2023-12-20T08:17:47;3.05;;;1.17;;
72087;SDS011;59961;50.232;8.616;2023-12-20T08:20:12;4.63;;;1.50;;
72087;SDS011;59961;50.232;8.616;2023-12-20T08:22:37;4.87;;;1.30;;
72087;SDS011;59961;50.232;8.616;2023-12-20T08:25:03;3.03;;;1.10;;
72087;SDS011;59961;50.232;8.616;2023-12-20T08:27:28;4.13;;;1.10;;
72087;SDS011;59961;50.232;8.616;2023-12-20T08:29:53;3.30;;;1.20;;
72087;SDS011;59961;50.232;8.616;2023-12-20T08:32:18;2.50;;;1.15;;
72087;SDS011;59961;50.232;8.616;2023-12-20T08:34:43;5.40;;;1.53;;
72087;SDS011;59961;50.232;8.616;2023-12-20T08:37:08;3.50;;;1.52;;
72087;SDS011;59961;50.232;8.616;2023-12-20T08:39:34;7.10;;;1.40;;
72087;SDS011;59961;50.232;8.616;2023-12-20T08:41:59;3.92;;;1.27;;
72087;SDS011;59961;50.232;8.616;2023-12-20T08:44:24;3.93;;;1.40;;
72087;SDS011;59961;50.232;8.616;2023-12-20T08:46:49;3.57;;;1.23;;
72087;SDS011;59961;50.232;8.616;2023-12-20T08:49:14;7.37;;;1.70;;
72087;SDS011;59961;50.232;8.616;2023-12-20T08:51:40;3.67;;;1.33;;
72087;SDS011;59961;50.232;8.616;2023-12-20T08:54:06;6.18;;;1.00;;
72087;SDS011;59961;50.232;8.616;2023-12-20T08:56:33;5.80;;;1.23;;
72087;SDS011;59961;50.232;8.616;2023-12-20T08:58:58;4.10;;;1.10;;
72087;SDS011;59961;50.232;8.616;2023-12-20T09:01:23;4.10;;;1.20;;
72087;SDS011;59961;50.232;8.616;2023-12-20T09:03:48;2.55;;;1.02;;
72087;SDS011;59961;50.232;8.616;2023-12-20T09:06:14;5.47;;;1.33;;
72087;SDS011;59961;50.232;8.616;2023-12-20T09:08:39;5.93;;;1.38;;
72087;SDS011;59961;50.232;8.616;2023-12-20T09:11:04;5.03;;;1.10;;
72087;SDS011;59961;50.232;8.616;2023-12-20T09:13:29;3.77;;;1.20;;
72087;SDS011;59961;50.232;8.616;2023-12-20T09:15:56;6.32;;;1.20;;
72087;SDS011;59961;50.232;8.616;2023-12-20T09:18:21;4.35;;;2.08;;
72087;SDS011;59961;50.232;8.616;2023-12-20T09:20:47;6.70;;;1.40;;
72087;SDS011;59961;50.232;8.616;2023-12-20T09:23:12;2.53;;;0.82;;
72087;SDS011;59961;50.232;8.616;2023-12-20T09:25:37;5.17;;;1.00;;
72087;SDS011;59961;50.232;8.616;2023-12-20T09:28:02;4.97;;;0.97;;
72087;SDS011;59961;50.232;8.616;2023-12-20T09:30:27;2.47;;;0.73;;
72087;SDS011;59961;50.232;8.616;2023-12-20T09:32:54;4.57;;;1.10;;
72087;SDS011;59961;50.232;8.616;2023-12-20T09:35:19;2.37;;;0.77;;
72087;SDS011;59961;50.232;8.616;2023-12-20T09:37:44;6.13;;;1.40;;
72087;SDS011;59961;50.232;8.616;2023-12-20T09:40:12;5.38;;;0.95;;
72087;SDS011;59961;50.232;8.616;2023-12-20T09:42:39;6.07;;;1.20;;
72087;SDS011;59961;50.232;8.616;2023-12-20T09:45:08;6.30;;;1.50;;
72087;SDS011;59961;50.232;8.616;2023-12-20T09:47:33;3.95;;;0.70;;
72087;SDS011;59961;50.232;8.616;2023-12-20T09:49:58;3.70;;;1.00;;
72087;SDS011;59961;50.232;8.616;2023-12-20T09:52:24;6.77;;;1.43;;
72087;SDS011;59961;50.232;8.616;2023-12-20T09:54:49;3.63;;;1.17;;
72087;SDS011;59961;50.232;8.616;2023-12-20T09:57:14;7.22;;;1.77;;
72087;SDS011;59961;50.232;8.616;2023-12-20T09:59:40;2.97;;;0.80;;
72087;SDS011;59961;50.232;8.616;2023-12-20T10:02:05;3.97;;;1.10;;
72087;SDS011;59961;50.232;8.616;2023-12-20T10:04:33;4.40;;;1.10;;
72087;SDS011;59961;50.232;8.616;2023-12-20T10:07:01;4.67;;;1.30;;
72087;SDS011;59961;50.232;8.616;2023-12-20T10:09:26;3.60;;;1.20;;
72087;SDS011;59961;50.232;8.616;2023-12-20T10:11:54;5.60;;;1.00;;
72087;SDS011;59961;50.232;8.616;2023-12-20T10:14:19;4.83;;;1.13;;
72087;SDS011;59961;50.232;8.616;2023-12-20T10:16:48;4.57;;;1.10;;
72087;SDS011;59961;50.232;8.616;2023-12-20T10:19:15;9.45;;;1.75;;
72087;SDS011;59961;50.232;8.616;2023-12-20T10:21:41;4.15;;;1.10;;
72087;SDS011;59961;50.232;8.616;2023-12-20T10:24:06;7.80;;;1.33;;
72087;SDS011;59961;50.232;8.616;2023-12-20T10:26:31;4.97;;;0.70;;
72087;SDS011;59961;50.232;8.616;2023-12-20T10:28:59;4.13;;;1.07;;
72087;SDS011;59961;50.232;8.616;2023-12-20T10:31:26;3.90;;;1.33;;
72087;SDS011;59961;50.232;8.616;2023-12-20T10:33:51;5.13;;;1.13;;
72087;SDS011;59961;50.232;8.616;2023-12-20T10:36:16;6.43;;;1.30;;
72087;SDS011;59961;50.232;8.616;2023-12-20T10:38:42;4.00;;;1.20;;
72087;SDS011;59961;50.232;8.616;2023-12-20T10:41:09;6.32;;;1.33;;
72087;SDS011;59961;50.232;8.616;2023-12-20T10:43:35;4.47;;;1.10;;
72087;SDS011;59961;50.232;8.616;2023-12-20T10:46:00;7.03;;;1.13;;
72087;SDS011;59961;50.232;8.616;2023-12-20T10:48:28;7.55;;;1.30;;
72087;SDS011;59961;50.232;8.616;2023-12-20T10:50:55;3.15;;;0.88;;
72087;SDS011;59961;50.232;8.616;2023-12-20T10:53:20;4.60;;;1.23;;
72087;SDS011;59961;50.232;8.616;2023-12-20T10:55:46;4.13;;;1.10;;
72087;SDS011;59961;50.232;8.616;2023-12-20T10:58:12;6.90;;;1.38;;
72087;SDS011;59961;50.232;8.616;2023-12-20T11:00:39;5.00;;;1.03;;
72087;SDS011;59961;50.232;8.616;2023-12-20T11:03:04;2.33;;;0.90;;
72087;SDS011;59961;50.232;8.616;2023-12-20T11:05:47;5.03;;;1.00;;
72087;SDS011;59961;50.232;8.616;2023-12-20T11:08:22;3.03;;;0.98;;
72087;SDS011;59961;50.232;8.616;2023-12-20T11:13:39;5.50;;;1.20;;
72087;SDS011;59961;50.232;8.616;2023-12-20T11:16:05;5.50;;;1.10;;
72087;SDS011;59961;50.232;8.616;2023-12-20T11:18:30;7.40;;;1.40;;
72087;SDS011;59961;50.232;8.616;2023-12-20T11:20:55;0.80;;;0.60;;
72087;SDS011;59961;50.232;8.616;2023-12-20T11:23:25;3.22;;;0.80;;
72087;SDS011;59961;50.232;8.616;2023-12-20T11:25:54;4.57;;;1.13;;
72087;SDS011;59961;50.232;8.616;2023-12-20T11:28:21;9.93;;;1.02;;
72087;SDS011;59961;50.232;8.616;2023-12-20T11:30:47;4.67;;;1.00;;
72087;SDS011;59961;50.232;8.616;2023-12-20T11:33:13;4.23;;;1.20;;
72087;SDS011;59961;50.232;8.616;2023-12-20T11:35:40;4.72;;;0.98;;
72087;SDS011;59961;50.232;8.616;2023-12-20T11:38:07;4.65;;;1.10;;
72087;SDS011;59961;50.232;8.616;2023-12-20T11:40:32;6.60;;;2.47;;
72087;SDS011;59961;50.232;8.616;2023-12-20T11:42:58;3.90;;;1.17;;
72087;SDS011;59961;50.232;8.616;2023-12-20T11:45:23;5.80;;;1.27;;
72087;SDS011;59961;50.232;8.616;2023-12-20T11:47:50;3.47;;;1.00;;
72087;SDS011;59961;50.232;8.616;2023-12-20T11:50:16;2.00;;;0.80;;
72087;SDS011;59961;50.232;8.616;2023-12-20T11:52:41;3.33;;;0.83;;
72087;SDS011;59961;50.232;8.616;2023-12-20T11:55:07;7.93;;;1.20;;
72087;SDS011;59961;50.232;8.616;2023-12-20T11:57:33;3.40;;;0.90;;
72087;SDS011;59961;50.232;8.616;2023-12-20T11:59:58;5.97;;;1.37;;
72087;SDS011;59961;50.232;8.616;2023-12-20T12:02:24;5.07;;;1.40;;
72087;SDS011;59961;50.232;8.616;2023-12-20T12:04:49;3.90;;;1.10;;
72087;SDS011;59961;50.232;8.616;2023-12-20T12:07:15;2.87;;;1.43;;
72087;SDS011;59961;50.232;8.616;2023-12-20T12:09:40;4.35;;;1.20;;
72087;SDS011;59961;50.232;8.616;2023-12-20T12:12:06;4.53;;;1.27;;
72087;SDS011;59961;50.232;8.616;2023-12-20T12:14:31;4.20;;;1.23;;
72087;SDS011;59961;50.232;8.616;2023-12-20T12:16:57;5.93;;;1.27;;
72087;SDS011;59961;50.232;8.616;2023-12-20T12:19:22;3.70;;;1.10;;
72087;SDS011;59961;50.232;8.616;2023-12-20T12:21:48;4.50;;;0.70;;
72087;SDS011;59961;50.232;8.616;2023-12-20T12:24:13;4.45;;;1.40;;
72087;SDS011;59961;50.232;8.616;2023-12-20T12:26:38;4.40;;;0.80;;
72087;SDS011;59961;50.232;8.616;2023-12-20T12:29:03;4.47;;;1.30;;
72087;SDS011;59961;50.232;8.616;2023-12-20T12:31:32;3.60;;;1.17;;
72087;SDS011;59961;50.232;8.616;2023-12-20T12:33:57;5.57;;;0.90;;
72087;SDS011;59961;50.232;8.616;2023-12-20T12:36:24;3.93;;;1.00;;
72087;SDS011;59961;50.232;8.616;2023-12-20T12:38:49;3.43;;;1.00;;
72087;SDS011;59961;50.232;8.616;2023-12-20T12:41:14;5.27;;;0.90;;
72087;SDS011;59961;50.232;8.616;2023-12-20T12:43:40;3.47;;;0.88;;
72087;SDS011;59961;50.232;8.616;2023-12-20T12:46:05;4.30;;;0.70;;
72087;SDS011;59961;50.232;8.616;2023-12-20T12:48:30;6.20;;;1.20;;
72087;SDS011;59961;50.232;8.616;2023-12-20T12:50:56;4.83;;;0.90;;
72087;SDS011;59961;50.232;8.616;2023-12-20T12:53:24;4.15;;;1.17;;
72087;SDS011;59961;50.232;8.616;2023-12-20T12:55:50;7.17;;;2.00;;
72087;SDS011;59961;50.232;8.616;2023-12-20T12:58:15;6.18;;;1.00;;
72087;SDS011;59961;50.232;8.616;2023-12-20T13:00:40;5.03;;;1.03;;
72087;SDS011;59961;50.232;8.616;2023-12-20T13:03:07;2.63;;;0.90;;
72087;SDS011;59961;50.232;8.616;2023-12-20T13:05:32;2.50;;;1.00;;
72087;SDS011;59961;50.232;8.616;2023-12-20T13:07:57;3.67;;;1.07;;
72087;SDS011;59961;50.232;8.616;2023-12-20T13:10:23;3.03;;;1.00;;
72087;SDS011;59961;50.232;8.616;2023-12-20T13:12:48;2.63;;;1.10;;
72087;SDS011;59961;50.232;8.616;2023-12-20T13:15:14;2.70;;;0.83;;
72087;SDS011;59961;50.232;8.616;2023-12-20T13:17:39;2.27;;;1.03;;
72087;SDS011;59961;50.232;8.616;2023-12-20T13:20:05;4.25;;;1.00;;
72087;SDS011;59961;50.232;8.616;2023-12-20T13:22:31;6.30;;;1.30;;
72087;SDS011;59961;50.232;8.616;2023-12-20T13:24:56;4.13;;;1.30;;
72087;SDS011;59961;50.232;8.616;2023-12-20T13:27:21;5.72;;;1.02;;
72087;SDS011;59961;50.232;8.616;2023-12-20T13:29:47;4.20;;;1.17;;
72087;SDS011;59961;50.232;8.616;2023-12-20T13:32:12;4.73;;;1.23;;
72087;SDS011;59961;50.232;8.616;2023-12-20T13:34:37;6.13;;;1.13;;
72087;SDS011;59961;50.232;8.616;2023-12-20T13:37:03;3.45;;;1.17;;
72087;SDS011;59961;50.232;8.616;2023-12-20T13:39:29;4.03;;;1.03;;
72087;SDS011;59961;50.232;8.616;2023-12-20T13:41:56;2.30;;;0.88;;
72087;SDS011;59961;50.232;8.616;2023-12-20T13:44:24;2.43;;;0.93;;
72087;SDS011;59961;50.232;8.616;2023-12-20T13:46:49;2.95;;;0.80;;
72087;SDS011;59961;50.232;8.616;2023-12-20T13:49:15;3.80;;;1.10;;
72087;SDS011;59961;50.232;8.616;2023-12-20T13:51:40;4.17;;;1.00;;
72087;SDS011;59961;50.232;8.616;2023-12-20T13:54:05;5.53;;;1.40;;
72087;SDS011;59961;50.232;8.616;2023-12-20T13:56:30;4.83;;;1.37;;
72087;SDS011;59961;50.232;8.616;2023-12-20T13:58:55;3.38;;;0.80;;
72087;SDS011;59961;50.232;8.616;2023-12-20T14:01:21;4.17;;;1.23;;
72087;SDS011;59961;50.232;8.616;2023-12-20T14:03:46;6.53;;;1.63;;
72087;SDS011;59961;50.232;8.616;2023-12-20T14:06:11;4.00;;;1.37;;
72087;SDS011;59961;50.232;8.616;2023-12-20T14:08:36;4.93;;;0.93;;
72087;SDS011;59961;50.232;8.616;2023-12-20T14:11:02;2.47;;;0.67;;
72087;SDS011;59961;50.232;8.616;2023-12-20T14:13:27;5.97;;;1.30;;
72087;SDS011;59961;50.232;8.616;2023-12-20T14:15:53;7.53;;;1.83;;
72087;SDS011;59961;50.232;8.616;2023-12-20T14:18:19;5.15;;;1.60;;
72087;SDS011;59961;50.232;8.616;2023-12-20T14:20:44;4.83;;;1.10;;
72087;SDS011;59961;50.232;8.616;2023-12-20T14:23:11;6.82;;;1.70;;
72087;SDS011;59961;50.232;8.616;2023-12-20T14:25:40;3.13;;;1.10;;
72087;SDS011;59961;50.232;8.616;2023-12-20T14:28:06;3.40;;;1.00;;
72087;SDS011;59961;50.232;8.616;2023-12-20T14:30:31;8.00;;;1.53;;
72087;SDS011;59961;50.232;8.616;2023-12-20T14:32:57;6.22;;;1.50;;
72087;SDS011;59961;50.232;8.616;2023-12-20T14:35:22;4.82;;;1.33;;
72087;SDS011;59961;50.232;8.616;2023-12-20T14:37:47;7.87;;;1.40;;
72087;SDS011;59961;50.232;8.616;2023-12-20T14:40:12;4.90;;;1.40;;